Time;durP1;ratioP1;P1;durP2;ratioP2;P2;SDS_P1;SDS_P2;PMS_P1;PMS_P2;Temp;Humidity;BMP_temperature;BMP_pressure;BME280_temperature;BME280_humidity;BME280_pressure;Samples;Min_cycle;Max_cycle;Signal;HPM_P1;HPM_P2
2023/08/06 00:00:05;;;;;;;275.85;163.63;;;;;;;10.02;100.00;101396.59;5094096;28;20040;-78
2023/08/06 00:02:31;;;;;;;283.70;168.15;;;;;;;9.80;100.00;101390.72;5093165;28;20092;-78
2023/08/06 00:04:56;;;;;;;277.65;164.50;;;;;;;9.69;100.00;101388.28;5093335;28;20028;-78
2023/08/06 00:07:22;;;;;;;274.02;162.75;;;;;;;9.65;100.00;101398.47;5092887;28;20028;-78
2023/08/06 00:09:48;;;;;;;278.13;163.38;;;;;;;9.46;100.00;101371.78;5093286;28;20028;-78
2023/08/06 00:12:14;;;;;;;271.58;162.45;;;;;;;9.65;100.00;101403.84;5094282;28;20038;-78
2023/08/06 00:14:39;;;;;;;271.60;163.85;;;;;;;9.66;100.00;101399.34;5093139;28;20462;-78
2023/08/06 00:17:05;;;;;;;274.80;165.25;;;;;;;9.49;100.00;101392.09;5093309;28;20028;-77
2023/08/06 00:19:31;;;;;;;264.17;158.35;;;;;;;9.41;100.00;101385.66;5076152;28;20053;-78
2023/08/06 00:21:57;;;;;;;268.58;160.45;;;;;;;9.16;100.00;101365.78;5092446;28;20032;-78
2023/08/06 00:24:23;;;;;;;255.10;153.68;;;;;;;9.28;100.00;101395.94;5092865;28;20497;-79
2023/08/06 00:26:48;;;;;;;251.38;153.73;;;;;;;9.17;100.00;101396.97;5076121;28;20048;-79
2023/08/06 00:29:14;;;;;;;254.27;154.80;;;;;;;9.10;100.00;101403.94;5093979;28;20419;-78
2023/08/06 00:31:40;;;;;;;254.63;155.63;;;;;;;8.95;100.00;101408.97;5093989;28;20031;-78
2023/08/06 00:34:05;;;;;;;256.77;156.43;;;;;;;8.80;100.00;101397.91;5075998;28;20032;-78
2023/08/06 00:36:31;;;;;;;257.42;156.73;;;;;;;8.92;100.00;101411.13;5092605;28;20020;-78
2023/08/06 00:38:56;;;;;;;271.05;162.07;;;;;;;8.88;100.00;101383.75;5092739;28;20050;-78
2023/08/06 00:41:22;;;;;;;269.65;162.10;;;;;;;9.08;100.00;101389.84;5093784;28;20046;-78
2023/08/06 00:43:47;;;;;;;261.85;159.73;;;;;;;9.42;100.00;101408.84;5092608;28;20027;-78
2023/08/06 00:46:13;;;;;;;266.00;161.07;;;;;;;9.63;100.00;101410.34;5093792;28;20039;-78
2023/08/06 00:48:40;;;;;;;268.13;161.02;;;;;;;9.72;100.00;101404.06;5093748;28;20040;-78
2023/08/06 00:51:06;;;;;;;261.88;158.65;;;;;;;9.72;100.00;101390.66;5059335;28;20047;-78
2023/08/06 00:53:32;;;;;;;280.45;169.18;;;;;;;9.77;100.00;101400.94;5092558;28;20028;-78
2023/08/06 00:55:58;;;;;;;275.83;166.43;;;;;;;9.81;100.00;101405.81;5093652;28;20036;-77
2023/08/06 00:58:23;;;;;;;284.77;171.10;;;;;;;9.83;100.00;101400.31;5059113;28;20130;-77
2023/08/06 01:00:49;;;;;;;291.70;176.57;;;;;;;9.81;100.00;101402.31;5075413;28;20040;-77
2023/08/06 01:03:15;;;;;;;294.48;176.80;;;;;;;9.89;100.00;101413.94;5093360;28;20368;-77
2023/08/06 01:05:41;;;;;;;282.70;169.32;;;;;;;9.87;100.00;101407.03;5092583;28;20035;-77
2023/08/06 01:08:25;;;;;;;279.13;163.88;;;;;;;10.03;100.00;101423.31;5092351;28;20020;-77
2023/08/06 01:11:06;;;;;;;280.17;167.75;;;;;;;10.10;100.00;101435.09;5093496;28;20036;-77
2023/08/06 01:13:47;;;;;;;288.10;173.23;;;;;;;10.08;100.00;101421.00;5075702;28;20036;-77
2023/08/06 01:16:21;;;;;;;284.00;170.05;;;;;;;10.18;100.00;101426.25;5075745;28;20032;-78
2023/08/06 01:18:49;;;;;;;277.30;165.48;;;;;;;10.19;100.00;101421.72;5059027;28;20471;-77
2023/08/06 01:21:18;;;;;;;293.70;174.38;;;;;;;10.15;100.00;101431.94;5075603;28;20072;-78
2023/08/06 01:23:45;;;;;;;278.70;165.60;;;;;;;10.03;100.00;101417.06;5058956;28;20032;-78
2023/08/06 01:26:34;;;;;;;276.85;164.77;;;;;;;10.02;100.00;101439.56;5075558;28;20035;-77
2023/08/06 01:29:05;;;;;;;290.75;173.43;;;;;;;9.89;100.00;101434.59;5075410;28;20032;-77
2023/08/06 01:31:33;;;;;;;283.20;168.82;;;;;;;9.79;100.00;101426.66;5093718;28;20032;-77
2023/08/06 01:34:00;;;;;;;279.45;168.80;;;;;;;9.73;100.00;101427.25;5075151;28;20035;-77
2023/08/06 01:36:27;;;;;;;278.00;167.15;;;;;;;9.50;100.00;101404.53;5058696;28;20071;-77
2023/08/06 01:38:55;;;;;;;280.13;167.13;;;;;;;9.55;100.00;101421.03;5092106;28;20032;-77
2023/08/06 01:41:21;;;;;;;270.73;162.00;;;;;;;9.57;100.00;101432.47;5058488;28;20363;-77
2023/08/06 01:43:46;;;;;;;279.25;166.00;;;;;;;9.45;100.00;101418.44;5093444;28;20134;-77
2023/08/06 01:46:12;;;;;;;280.52;168.43;;;;;;;9.31;100.00;101410.88;5092131;28;20051;-77
2023/08/06 01:48:37;;;;;;;275.77;167.68;;;;;;;9.36;100.00;101424.69;5092006;28;20457;-77
2023/08/06 01:51:07;;;;;;;278.83;169.40;;;;;;;9.41;100.00;101433.97;5077743;28;20032;-77
2023/08/06 01:53:33;;;;;;;280.48;170.32;;;;;;;9.31;100.00;101426.97;5062378;28;20482;-77
2023/08/06 01:55:58;;;;;;;283.50;171.82;;;;;;;9.32;100.00;101428.69;5095493;28;20478;-77
2023/08/06 01:58:24;;;;;;;277.88;167.73;;;;;;;9.24;100.00;101419.53;5089202;28;20040;-77
2023/08/06 02:00:50;;;;;;;273.75;165.18;;;;;;;9.45;100.00;101424.63;5076156;28;20112;-77
2023/08/06 02:03:15;;;;;;;271.73;163.10;;;;;;;9.52;100.00;101405.22;5075115;28;20508;-78
2023/08/06 02:05:42;;;;;;;271.08;161.70;;;;;;;9.76;100.00;101413.50;5058786;28;20029;-77
2023/08/06 02:08:08;;;;;;;277.17;165.05;;;;;;;9.85;100.00;101417.13;5042161;28;20033;-77
2023/08/06 02:10:34;;;;;;;272.83;164.90;;;;;;;9.91;100.00;101414.63;5075177;28;20078;-78
2023/08/06 02:13:00;;;;;;;266.55;160.13;;;;;;;10.04;100.00;101406.19;5058575;28;20374;-77
2023/08/06 02:15:25;;;;;;;271.17;162.00;;;;;;;10.06;100.00;101409.56;5058151;28;20024;-77
2023/08/06 02:17:51;;;;;;;265.77;159.02;;;;;;;10.05;100.00;101399.78;5058432;28;20028;-77
2023/08/06 02:20:16;;;;;;;265.95;159.98;;;;;;;10.10;100.00;101405.53;5075022;28;20033;-77
2023/08/06 02:22:42;;;;;;;272.65;159.88;;;;;;;10.23;100.00;101404.28;5074656;28;20029;-77
2023/08/06 02:25:08;;;;;;;268.70;159.05;;;;;;;10.25;100.00;101394.25;5074714;28;20498;-77
2023/08/06 02:27:33;;;;;;;262.25;156.63;;;;;;;10.22;100.00;101384.66;5076082;28;20064;-77
2023/08/06 02:29:59;;;;;;;264.58;157.05;;;;;;;10.37;100.00;101403.75;5058373;28;20090;-77
2023/08/06 02:32:24;;;;;;;266.38;156.77;;;;;;;10.36;100.00;101415.50;5074846;28;20406;-78
2023/08/06 02:34:50;;;;;;;264.20;156.40;;;;;;;10.32;100.00;101406.09;5074417;28;20033;-77
2023/08/06 02:37:15;;;;;;;265.92;158.10;;;;;;;10.41;100.00;101417.72;5074386;28;20103;-77
2023/08/06 02:39:41;;;;;;;265.13;158.23;;;;;;;10.31;100.00;101407.06;5057913;28;20360;-77
2023/08/06 02:42:07;;;;;;;265.83;158.90;;;;;;;10.33;100.00;101411.28;5075794;28;20399;-77
2023/08/06 02:44:34;;;;;;;274.20;164.00;;;;;;;10.31;100.00;101413.28;5041366;28;20063;-77
2023/08/06 02:47:00;;;;;;;268.27;159.27;;;;;;;10.15;100.00;101423.91;5041387;28;20044;-78
2023/08/06 02:49:25;;;;;;;273.48;163.52;;;;;;;9.94;100.00;101424.22;5057881;28;20028;-77
2023/08/06 02:51:51;;;;;;;278.55;167.30;;;;;;;9.77;100.00;101417.06;5057904;28;20032;-77
2023/08/06 02:54:18;;;;;;;278.98;167.85;;;;;;;9.54;100.00;101412.13;5075558;28;20463;-77
2023/08/06 02:56:45;;;;;;;267.80;161.65;;;;;;;9.42;100.00;101410.66;5074578;28;20050;-77
2023/08/06 02:59:11;;;;;;;274.02;165.60;;;;;;;9.38;100.00;101410.13;5057362;28;20075;-78
2023/08/06 03:01:37;;;;;;;285.95;174.75;;;;;;;9.36;100.00;101409.44;5073127;28;20033;-77
2023/08/06 03:04:03;;;;;;;289.10;175.75;;;;;;;9.32;100.00;101401.84;5073874;28;20032;-77
2023/08/06 03:06:28;;;;;;;288.80;175.00;;;;;;;9.44;100.00;101414.03;5057458;28;20433;-77
2023/08/06 03:08:54;;;;;;;313.13;193.25;;;;;;;9.55;100.00;101407.59;5075053;28;20025;-77
2023/08/06 03:11:19;;;;;;;314.52;192.73;;;;;;;9.65;100.00;101405.69;5074063;28;20070;-77
2023/08/06 03:13:45;;;;;;;307.65;188.50;;;;;;;9.75;100.00;101403.75;5075055;28;20024;-77
2023/08/06 03:16:11;;;;;;;291.48;178.57;;;;;;;9.78;100.00;101398.06;5057337;28;20063;-77
2023/08/06 03:18:36;;;;;;;292.35;179.00;;;;;;;9.72;100.00;101381.75;5075085;28;20162;-77
2023/08/06 03:21:02;;;;;;;292.88;178.52;;;;;;;9.86;100.00;101400.00;5040556;28;20355;-78
2023/08/06 03:23:28;;;;;;;285.17;174.13;;;;;;;9.97;100.00;101402.44;5074043;28;20064;-77
2023/08/06 03:25:53;;;;;;;290.63;176.95;;;;;;;10.01;100.00;101398.44;5073440;28;20115;-78
2023/08/06 03:28:19;;;;;;;294.73;179.32;;;;;;;10.00;100.00;101382.47;5073713;28;20044;-77
2023/08/06 03:30:45;;;;;;;293.48;178.35;;;;;;;10.12;100.00;101400.88;5057123;28;20024;-77
2023/08/06 03:33:10;;;;;;;289.73;175.50;;;;;;;10.08;100.00;101393.25;5073578;28;20028;-77
2023/08/06 03:35:36;;;;;;;290.85;175.35;;;;;;;9.85;100.00;101350.81;5074771;28;20391;-77
2023/08/06 03:38:01;;;;;;;286.00;170.48;;;;;;;10.10;100.00;101389.41;5074817;28;20032;-78
2023/08/06 03:40:27;;;;;;;277.50;166.35;;;;;;;10.20;100.00;101401.94;5073126;28;20387;-77
2023/08/06 03:42:52;;;;;;;276.58;166.25;;;;;;;10.27;100.00;101414.63;5056973;28;20024;-77
2023/08/06 03:45:18;;;;;;;278.77;166.02;;;;;;;10.24;100.00;101393.41;5073592;28;20467;-77
2023/08/06 03:47:44;;;;;;;273.92;162.52;;;;;;;10.34;100.00;101410.28;5074177;28;20028;-77
2023/08/06 03:50:10;;;;;;;284.60;170.45;;;;;;;10.37;100.00;101402.91;5073342;28;20028;-77
2023/08/06 03:52:36;;;;;;;285.45;171.00;;;;;;;10.37;100.00;101400.22;5073387;28;20024;-77
2023/08/06 03:55:02;;;;;;;285.00;171.20;;;;;;;10.37;100.00;101403.75;5073213;28;20024;-77
2023/08/06 03:57:27;;;;;;;294.85;175.65;;;;;;;10.34;100.00;101404.91;5073104;28;20111;-77
2023/08/06 03:59:53;;;;;;;284.85;169.95;;;;;;;10.28;100.00;101399.31;5056424;28;20060;-78
2023/08/06 04:02:19;;;;;;;288.85;172.35;;;;;;;10.31;100.00;101404.38;5072702;28;20066;-77
2023/08/06 04:04:44;;;;;;;290.83;173.07;;;;;;;10.16;100.00;101377.22;5073902;28;20032;-77
2023/08/06 04:07:10;;;;;;;272.05;163.38;;;;;;;10.27;100.00;101403.88;5056380;28;20028;-77
2023/08/06 04:09:52;;;;;;;279.95;167.35;;;;;;;10.16;100.00;101396.03;5056290;28;20035;-78
2023/08/06 04:12:17;;;;;;;290.13;173.68;;;;;;;10.25;100.00;101403.13;5023547;28;20037;-77
2023/08/06 04:14:43;;;;;;;282.08;169.88;;;;;;;10.22;100.00;101403.47;5072579;28;20115;-77
2023/08/06 04:17:08;;;;;;;279.73;165.32;;;;;;;10.27;100.00;101408.38;5073761;28;20021;-77
2023/08/06 04:19:34;;;;;;;277.00;164.93;;;;;;;10.10;100.00;101377.84;5056290;28;20041;-78
2023/08/06 04:22:00;;;;;;;264.73;158.63;;;;;;;10.32;100.00;101406.09;5072662;28;20036;-78
2023/08/06 04:24:25;;;;;;;268.60;160.52;;;;;;;10.41;100.00;101412.34;5056358;28;20383;-77
2023/08/06 04:26:51;;;;;;;270.63;160.20;;;;;;;10.37;100.00;101406.44;5039405;28;20028;-77
2023/08/06 04:29:16;;;;;;;281.95;167.65;;;;;;;10.44;100.00;101414.72;5073646;28;20436;-77
2023/08/06 04:31:42;;;;;;;259.90;155.52;;;;;;;10.44;100.00;101403.97;5072624;28;20084;-77
2023/08/06 04:34:09;;;;;;;256.90;154.88;;;;;;;10.40;100.00;101394.50;5072304;28;20042;-78
2023/08/06 04:36:34;;;;;;;255.88;153.98;;;;;;;10.38;100.00;101386.63;5073791;28;20107;-77
2023/08/06 04:39:00;;;;;;;261.50;157.23;;;;;;;10.48;100.00;101406.19;5056271;28;20121;-77
2023/08/06 04:41:25;;;;;;;259.33;153.27;;;;;;;10.54;100.00;101408.22;5072518;28;20409;-77
2023/08/06 04:43:51;;;;;;;263.63;156.38;;;;;;;10.55;100.00;101412.59;5072119;28;20070;-77
2023/08/06 04:46:16;;;;;;;269.45;158.80;;;;;;;10.59;100.00;101418.50;5055692;28;20530;-80
2023/08/06 04:48:42;;;;;;;268.75;159.25;;;;;;;10.51;100.00;101413.91;5072113;28;20051;-77
2023/08/06 04:51:08;;;;;;;265.10;158.15;;;;;;;10.48;100.00;101416.94;5073788;28;20486;-77
2023/08/06 04:53:33;;;;;;;273.27;162.73;;;;;;;10.39;100.00;101423.25;5055392;28;20020;-77
2023/08/06 04:55:59;;;;;;;260.50;156.25;;;;;;;10.16;100.00;101406.78;5072361;28;20029;-79
2023/08/06 04:58:24;;;;;;;268.63;160.35;;;;;;;10.26;100.00;101430.84;5072387;28;20455;-77
2023/08/06 05:00:50;;;;;;;288.58;172.48;;;;;;;10.18;100.00;101425.41;5071954;28;20052;-77
2023/08/06 05:03:15;;;;;;;295.20;178.18;;;;;;;9.99;100.00;101421.94;5072135;28;20040;-77
2023/08/06 05:05:41;;;;;;;295.98;177.63;;;;;;;9.89;100.00;101440.81;5072372;28;20020;-78
2023/08/06 05:08:07;;;;;;;291.58;177.18;;;;;;;9.73;100.00;101427.25;5055647;28;20028;-77
2023/08/06 05:10:33;;;;;;;291.23;178.38;;;;;;;9.61;100.00;101423.94;5071973;28;20486;-77
2023/08/06 05:12:58;;;;;;;281.33;169.23;;;;;;;9.48;100.00;101403.84;5055395;28;20482;-78
2023/08/06 05:15:25;;;;;;;296.70;180.18;;;;;;;9.68;100.00;101427.72;5072172;28;20028;-78
2023/08/06 05:17:51;;;;;;;298.90;181.80;;;;;;;9.92;100.00;101439.66;5071759;28;20049;-77
2023/08/06 05:20:17;;;;;;;294.45;179.88;;;;;;;9.90;100.00;101412.13;5071903;28;20033;-77
2023/08/06 05:22:43;;;;;;;291.33;177.23;;;;;;;10.17;100.00;101446.09;5038883;28;20072;-77
2023/08/06 05:25:09;;;;;;;279.55;168.50;;;;;;;10.25;100.00;101454.22;5072953;28;20035;-77
2023/08/06 05:27:34;;;;;;;281.23;168.13;;;;;;;10.42;100.00;101457.03;5077174;28;20021;-77
2023/08/06 05:30:00;;;;;;;311.98;188.88;;;;;;;10.57;100.00;101455.47;5059329;28;20491;-78
2023/08/06 05:32:25;;;;;;;304.60;183.57;;;;;;;10.82;100.00;101464.50;5076080;28;20115;-77
2023/08/06 05:34:51;;;;;;;290.00;173.90;;;;;;;10.94;100.00;101449.78;5075814;28;20043;-77
2023/08/06 05:37:17;;;;;;;292.27;173.20;;;;;;;11.18;100.00;101462.47;5075553;28;20429;-77
2023/08/06 05:39:42;;;;;;;314.65;187.90;;;;;;;11.34;100.00;101459.00;5059269;28;20021;-77
2023/08/06 05:42:08;;;;;;;297.13;175.13;;;;;;;11.53;100.00;101468.66;5076929;28;20050;-77
2023/08/06 05:44:33;;;;;;;320.20;186.10;;;;;;;11.68;100.00;101459.94;5059401;28;20086;-77
2023/08/06 05:46:59;;;;;;;327.00;193.93;;;;;;;11.82;100.00;101459.28;5075737;28;20393;-77
2023/08/06 05:49:25;;;;;;;333.70;197.80;;;;;;;11.81;100.00;101457.59;5079733;28;20033;-76
2023/08/06 05:51:53;;;;;;;334.58;196.77;;;;;;;11.80;100.00;101464.84;5076467;28;20059;-77
2023/08/06 05:54:19;;;;;;;332.17;193.57;;;;;;;11.82;100.00;101461.97;5075583;28;20048;-77
2023/08/06 05:56:45;;;;;;;326.05;191.85;;;;;;;11.86;100.00;101469.59;5064585;28;20028;-77
2023/08/06 05:59:11;;;;;;;326.38;189.45;;;;;;;11.87;100.00;101463.19;5078615;28;20471;-76
2023/08/06 06:01:36;;;;;;;312.67;182.95;;;;;;;12.16;100.00;101472.63;5095264;28;20019;-77
2023/08/06 06:04:02;;;;;;;314.50;182.35;;;;;;;12.73;100.00;101475.25;5078939;28;20455;-78
2023/08/06 06:06:28;;;;;;;310.75;179.20;;;;;;;12.90;100.00;101470.66;5083620;28;20029;-78
2023/08/06 06:08:54;;;;;;;338.98;195.30;;;;;;;13.04;100.00;101481.75;5044881;28;20029;-77
2023/08/06 06:11:21;;;;;;;340.33;196.15;;;;;;;13.20;100.00;101462.75;5071779;28;20391;-79
2023/08/06 06:13:50;;;;;;;326.52;185.52;;;;;;;13.59;100.00;101494.34;5056359;28;20030;-77
2023/08/06 06:16:16;;;;;;;345.30;196.20;;;;;;;13.71;100.00;101475.88;5055207;28;20033;-78
2023/08/06 06:18:42;;;;;;;346.10;194.45;;;;;;;13.70;100.00;101488.53;5056178;28;20044;-78
2023/08/06 06:21:07;;;;;;;336.83;189.60;;;;;;;13.61;100.00;101490.44;5054887;28;20037;-77
2023/08/06 06:23:33;;;;;;;321.33;179.25;;;;;;;13.56;100.00;101495.53;5068194;28;20039;-78
2023/08/06 06:25:59;;;;;;;324.05;180.57;;;;;;;13.62;100.00;101500.22;5095115;28;20028;-76
2023/08/06 06:28:24;;;;;;;323.80;180.25;;;;;;;13.71;100.00;101505.63;5093582;28;20387;-76
2023/08/06 06:30:51;;;;;;;342.23;190.23;;;;;;;13.75;100.00;101502.34;5095196;28;20085;-76
2023/08/06 06:33:17;;;;;;;310.60;174.48;;;;;;;13.78;100.00;101502.00;5072372;28;20059;-78
2023/08/06 06:35:42;;;;;;;331.17;184.70;;;;;;;13.84;100.00;101504.00;5035738;28;20459;-78
2023/08/06 06:38:08;;;;;;;342.23;190.30;;;;;;;13.98;100.00;101513.19;5054499;28;20369;-78
2023/08/06 06:40:34;;;;;;;352.67;196.32;;;;;;;14.08;100.00;101513.78;5054340;28;20517;-77
2023/08/06 06:42:59;;;;;;;343.17;189.50;;;;;;;14.10;100.00;101508.19;5054645;28;20392;-77
2023/08/06 06:45:25;;;;;;;344.60;191.00;;;;;;;14.15;100.00;101504.94;5053333;28;20028;-77
2023/08/06 06:47:51;;;;;;;353.80;197.05;;;;;;;14.14;100.00;101497.88;5020751;28;20047;-77
2023/08/06 06:50:16;;;;;;;378.70;209.25;;;;;;;14.32;100.00;101505.69;5020515;28;20037;-78
2023/08/06 06:52:42;;;;;;;376.88;209.02;;;;;;;14.54;100.00;101522.94;5054596;28;20033;-77
2023/08/06 06:55:08;;;;;;;352.63;192.85;;;;;;;14.60;100.00;101517.59;5053383;28;20029;-78
2023/08/06 06:57:33;;;;;;;341.50;187.05;;;;;;;14.61;100.00;101522.00;5052929;28;20056;-77
2023/08/06 06:59:59;;;;;;;349.60;191.98;;;;;;;14.53;100.00;101522.09;5053126;28;20029;-76
2023/08/06 07:02:25;;;;;;;351.92;193.70;;;;;;;14.60;100.00;101512.19;5036512;28;20379;-78
2023/08/06 07:04:50;;;;;;;348.77;190.77;;;;;;;14.78;100.00;101529.97;5036754;28;20052;-77
2023/08/06 07:07:16;;;;;;;364.00;198.32;;;;;;;14.92;100.00;101512.88;5048701;28;20024;-78
2023/08/06 07:09:41;;;;;;;354.05;193.27;;;;;;;15.11;100.00;101517.75;5093219;28;20085;-78
2023/08/06 07:12:07;;;;;;;372.80;204.20;;;;;;;15.22;100.00;101502.91;5076696;28;20039;-77
2023/08/06 07:14:33;;;;;;;370.60;200.25;;;;;;;15.49;100.00;101522.22;5093002;28;20386;-77
2023/08/06 07:16:58;;;;;;;361.45;195.90;;;;;;;15.43;100.00;101520.22;5076607;28;20063;-77
2023/08/06 07:19:24;;;;;;;362.77;195.45;;;;;;;15.34;100.00;101514.91;5093286;28;20132;-77
2023/08/06 07:21:50;;;;;;;364.88;198.63;;;;;;;15.24;100.00;101522.53;5050935;28;1203074;-77
2023/08/06 07:24:16;;;;;;;368.95;199.85;;;;;;;15.21;100.00;101519.31;5094217;28;20043;-76
2023/08/06 07:26:41;;;;;;;368.05;198.50;;;;;;;15.26;100.00;101525.88;5077204;28;20040;-77
2023/08/06 07:29:07;;;;;;;362.75;195.68;;;;;;;15.37;100.00;101525.41;5077273;28;20028;-76
2023/08/06 07:31:33;;;;;;;360.70;194.13;;;;;;;15.45;100.00;101526.31;5092668;28;20420;-78
2023/08/06 07:33:59;;;;;;;369.70;198.57;;;;;;;15.33;100.00;101496.16;5064211;28;20472;-80
2023/08/06 07:36:25;;;;;;;395.05;209.23;;;;;;;15.88;100.00;101524.56;5053328;28;20044;-78
2023/08/06 07:38:56;;;;;;;393.48;209.68;;;;;;;15.92;100.00;101512.28;5054740;28;20111;-77
2023/08/06 07:41:23;;;;;;;376.60;200.18;;;;;;;15.87;100.00;101527.47;5053520;28;20029;-77
2023/08/06 07:43:49;;;;;;;373.55;198.65;;;;;;;15.84;100.00;101528.69;5020621;28;20033;-80
2023/08/06 07:46:15;;;;;;;375.33;198.15;;;;;;;15.91;100.00;101528.78;5068868;28;20148;-78
2023/08/06 07:48:40;;;;;;;373.67;198.43;;;;;;;15.79;100.00;101521.13;5039315;28;20137;-77
2023/08/06 07:51:06;;;;;;;379.05;199.82;;;;;;;15.98;100.00;101529.66;5056710;28;20036;-80
2023/08/06 07:53:31;;;;;;;374.25;198.57;;;;;;;16.13;100.00;101533.16;5073233;28;20027;-77
2023/08/06 07:55:57;;;;;;;367.67;193.70;;;;;;;16.14;100.00;101529.44;5073302;28;20430;-78
2023/08/06 07:58:25;;;;;;;354.98;189.88;;;;;;;16.14;100.00;101520.44;5056905;28;20036;-79
2023/08/06 08:00:51;;;;;;;371.33;198.00;;;;;;;16.35;100.00;101534.00;5039914;28;20060;-79
2023/08/06 08:03:17;;;;;;;368.02;195.52;;;;;;;16.75;100.00;101537.06;5056577;28;20565;-78
2023/08/06 08:05:43;;;;;;;364.00;191.45;;;;;;;17.10;100.00;101520.81;5073355;28;20148;-77
2023/08/06 08:08:09;;;;;;;373.55;194.85;;;;;;;18.38;100.00;101538.19;5040077;28;20036;-75
2023/08/06 08:10:35;;;;;;;382.92;199.25;;;;;;;19.42;100.00;101541.19;5074157;28;20379;-79
2023/08/06 08:13:04;;;;;;;377.08;193.23;;;;;;;19.98;100.00;101541.38;5074104;28;20433;-78
2023/08/06 08:15:30;;;;;;;384.13;195.48;;;;;;;21.12;100.00;101535.84;5072986;28;20036;-76
2023/08/06 08:17:56;;;;;;;372.10;188.30;;;;;;;23.04;100.00;101536.88;5056358;28;20506;-78
2023/08/06 08:20:22;;;;;;;389.33;194.55;;;;;;;24.74;93.95;101541.78;5073944;28;20059;-77
2023/08/06 08:22:48;;;;;;;395.27;195.65;;;;;;;25.97;87.27;101551.69;5074091;28;20033;-79
2023/08/06 08:25:14;;;;;;;398.30;194.10;;;;;;;26.25;84.09;101548.66;5039770;28;20034;-77
2023/08/06 08:27:39;;;;;;;394.15;192.07;;;;;;;24.35;89.78;101536.19;5073698;28;20071;-79
2023/08/06 08:30:05;;;;;;;406.33;197.48;;;;;;;22.62;96.08;101534.22;5072908;28;20442;-76
2023/08/06 08:32:31;;;;;;;390.45;190.95;;;;;;;21.19;100.00;101524.81;5056100;28;20378;-78
2023/08/06 08:34:57;;;;;;;405.85;197.70;;;;;;;19.92;100.00;101542.25;5073199;28;20111;-78
2023/08/06 08:37:23;;;;;;;402.38;196.38;;;;;;;19.21;100.00;101542.31;5072641;28;20028;-78
2023/08/06 08:39:49;;;;;;;435.20;209.82;;;;;;;19.67;100.00;101538.63;5072606;28;20104;-78
2023/08/06 08:42:15;;;;;;;443.85;214.77;;;;;;;23.08;95.96;101538.06;5072414;28;20043;-78
2023/08/06 08:44:42;;;;;;;431.10;207.48;;;;;;;25.54;70.62;101531.34;5072208;28;20044;-78
2023/08/06 08:47:09;;;;;;;443.10;212.55;;;;;;;24.41;67.60;101526.94;5072742;28;20130;-78
2023/08/06 08:49:35;;;;;;;435.42;209.85;;;;;;;23.38;63.62;101554.34;5072245;28;20394;-78
2023/08/06 08:52:02;;;;;;;424.65;205.20;;;;;;;21.11;70.97;101539.63;5072141;28;20439;-78
2023/08/06 08:54:28;;;;;;;450.33;216.82;;;;;;;19.00;94.03;101557.88;5072450;28;20082;-77
2023/08/06 08:56:55;;;;;;;447.85;218.00;;;;;;;17.55;100.00;101570.19;5055777;28;20464;-77
2023/08/06 08:59:20;;;;;;;442.15;218.20;;;;;;;16.59;100.00;101554.47;5055205;28;20040;-77
2023/08/06 09:01:51;;;;;;;444.58;220.63;;;;;;;16.12;100.00;101565.94;5071840;28;20029;-77
2023/08/06 09:04:17;;;;;;;437.30;219.00;;;;;;;15.96;100.00;101567.00;5068477;28;20040;-78
2023/08/06 09:06:50;;;;;;;437.25;221.38;;;;;;;16.17;100.00;101561.59;5072051;28;20126;-77
2023/08/06 09:09:28;;;;;;;448.02;226.90;;;;;;;16.51;100.00;101560.03;5035280;28;20024;-87
2023/08/06 09:11:55;;;;;;;450.15;228.63;;;;;;;16.81;100.00;101551.75;5059036;28;20483;-88
2023/08/06 09:14:33;;;;;;;445.42;227.18;;;;;;;16.96;100.00;101565.22;5090566;28;20031;-86
2023/08/06 09:17:04;;;;;;;431.75;220.57;;;;;;;16.95;100.00;101563.53;5058792;28;20033;-87
2023/08/06 09:19:33;;;;;;;425.60;218.18;;;;;;;16.98;100.00;101566.69;5055428;28;20043;-88
2023/08/06 09:21:58;;;;;;;421.60;216.55;;;;;;;17.20;100.00;101547.59;5070693;28;20032;-88
2023/08/06 09:24:26;;;;;;;423.38;216.38;;;;;;;18.02;100.00;101544.84;5072389;28;20081;-89
2023/08/06 09:26:51;;;;;;;414.27;211.48;;;;;;;19.19;100.00;101541.72;5056127;28;20037;-90
2023/08/06 09:29:17;;;;;;;413.45;210.30;;;;;;;19.39;100.00;101558.00;5072854;28;20033;-90
2023/08/06 09:31:48;;;;;;;409.58;207.35;;;;;;;19.72;100.00;101556.00;5039420;28;20131;-89
2023/08/06 09:34:19;;;;;;;417.48;210.55;;;;;;;19.85;100.00;101540.63;5039236;28;20037;-88
2023/08/06 09:36:52;;;;;;;427.00;214.60;;;;;;;19.89;100.00;101559.06;5055936;28;20025;-90
2023/08/06 09:39:19;;;;;;;436.60;217.38;;;;;;;21.86;100.00;101571.41;5073418;28;20098;-89
2023/08/06 09:41:49;;;;;;;409.15;204.20;;;;;;;22.82;99.25;101555.81;5055901;28;20060;-88
2023/08/06 09:44:19;;;;;;;410.70;204.00;;;;;;;24.74;89.52;101547.28;5039283;28;20090;-89
2023/08/06 09:46:49;;;;;;;405.58;199.15;;;;;;;24.96;84.92;101541.84;5055582;28;20028;-87
2023/08/06 09:49:15;;;;;;;407.92;199.43;;;;;;;25.76;82.74;101573.47;5038962;28;20086;-87
2023/08/06 09:51:41;;;;;;;410.27;199.82;;;;;;;26.10;81.34;101576.06;5072067;28;20025;-88
2023/08/06 09:54:10;;;;;;;419.88;203.18;;;;;;;26.74;75.48;101536.66;5039714;28;20047;-88
2023/08/06 09:56:37;;;;;;;432.77;208.23;;;;;;;25.60;78.82;101575.19;5056119;28;20028;-87
2023/08/06 09:59:06;;;;;;;440.88;209.32;;;;;;;24.74;81.06;101561.88;5056052;28;20398;-88
2023/08/06 10:01:33;;;;;;;446.88;213.73;;;;;;;24.26;83.27;101567.88;5072063;28;20024;-88
2023/08/06 10:04:01;;;;;;;442.63;210.57;;;;;;;23.70;86.99;101565.72;5055115;28;20029;-89
2023/08/06 10:06:26;;;;;;;438.65;210.27;;;;;;;24.37;85.74;101558.72;5038882;28;20043;-89
2023/08/06 10:08:52;;;;;;;434.45;208.93;;;;;;;23.57;89.07;101579.72;5071923;28;20036;-88
2023/08/06 10:11:21;;;;;;;451.77;215.95;;;;;;;24.32;89.67;101586.16;5039791;28;20025;-89
2023/08/06 10:13:48;;;;;;;455.42;216.50;;;;;;;26.21;78.97;101588.84;5042373;28;20450;-88
2023/08/06 10:16:14;;;;;;;457.77;217.18;;;;;;;25.07;75.80;101573.09;5042698;28;20471;-89
2023/08/06 10:18:41;;;;;;;452.63;214.38;;;;;;;24.72;85.43;101577.78;5056958;28;20039;-90
2023/08/06 10:21:13;;;;;;;473.05;221.77;;;;;;;25.12;80.83;101556.66;5030863;28;20025;-89
2023/08/06 10:23:40;;;;;;;477.90;224.13;;;;;;;27.73;74.74;101561.75;5048127;28;20036;-89
2023/08/06 10:26:07;;;;;;;483.85;226.73;;;;;;;27.39;73.30;101574.06;5057496;28;20044;-90
2023/08/06 10:28:39;;;;;;;463.70;217.73;;;;;;;25.00;74.83;101576.81;5055099;28;20040;-90
2023/08/06 10:31:06;;;;;;;485.02;225.00;;;;;;;26.67;74.55;101569.97;5052117;28;20044;-90
2023/08/06 10:33:55;;;;;;;497.30;231.30;;;;;;;26.48;70.13;101579.72;5042464;28;20032;-91
2023/08/06 10:36:21;;;;;;;512.25;240.32;;;;;;;25.27;76.13;101580.81;5079041;28;20029;-89
2023/08/06 10:38:48;;;;;;;505.67;236.07;;;;;;;24.00;77.59;101572.94;5049204;28;20498;-89
2023/08/06 10:41:28;;;;;;;518.28;243.23;;;;;;;22.82;85.32;101583.22;5039891;28;20033;-87
2023/08/06 10:44:10;;;;;;;524.17;247.00;;;;;;;23.16;82.54;101580.75;5051035;28;20677;-86
2023/08/06 10:46:36;;;;;;;502.73;234.33;;;;;;;23.06;83.58;101573.13;5035399;28;20487;-86